Time,TemperatureF,DewpointF,PressureIn,WindDirection,WindDirectionDegrees,WindSpeedMPH,WindSpeedGustMPH,Humidity,HourlyPrecipIn,Conditions,Clouds,dailyrainin,SolarRadiationWatts/m^2,SoftwareType,DateUTC
2013-05-12 00:00:00,55.6,47.1,29.65,South,169,0.0,0.0,73,0.00,,,0.00,0,Wunderground v.1.15,2013-05-12 04:00:00,
2013-05-12 00:01:00,55.6,47.1,29.65,South,169,0.0,0.0,73,0.00,,,0.00,0,Wunderground v.1.15,2013-05-12 04:01:00,
2013-05-12 00:02:00,55.6,47.1,29.65,South,169,0.0,0.0,73,0.00,,,0.00,0,Wunderground v.1.15,2013-05-12 04:02:00,
2013-05-12 00:03:00,55.6,47.1,29.65,South,169,0.0,0.0,73,0.00,,,0.00,0,Wunderground v.1.15,2013-05-12 04:03:00,
2013-05-12 00:06:00,55.6,47.1,29.65,South,169,0.0,0.0,73,0.00,,,0.00,0,Wunderground v.1.15,2013-05-12 04:06:00,
2013-05-12 00:11:00,55.6,47.4,29.65,South,169,0.0,0.0,74,0.00,,,0.00,0,Wunderground v.1.15,2013-05-12 04:11:00,
2013-05-12 00:12:00,55.6,47.4,29.65,South,169,0.0,0.0,74,0.00,,,0.00,0,Wunderground v.1.15,2013-05-12 04:12:00,
2013-05-12 00:18:00,55.4,47.2,29.65,South,169,0.0,0.0,74,0.00,,,0.00,0,Wunderground v.1.15,2013-05-12 04:18:00,
2013-05-12 00:23:00,55.4,47.2,29.65,South,169,0.0,0.0,74,0.00,,,0.00,0,Wunderground v.1.15,2013-05-12 04:23:00,
2013-05-12 00:29:00,55.4,47.6,29.65,South,169,0.0,0.0,75,0.00,,,0.00,0,Wunderground v.1.15,2013-05-12 04:29:00,
2013-05-12 00:34:00,55.3,47.5,29.65,South,169,0.0,0.0,75,0.00,,,0.00,0,Wunderground v.1.15,2013-05-12 04:34:00,
2013-05-12 00:40:00,55.3,47.9,29.65,South,169,0.0,0.0,76,0.00,,,0.00,0,Wunderground v.1.15,2013-05-12 04:40:00,
2013-05-12 00:45:00,55.1,47.7,29.65,South,169,0.0,0.0,76,0.00,,,0.00,0,Wunderground v.1.15,2013-05-12 04:45:00,
2013-05-12 00:50:00,55.1,48.0,29.65,South,169,0.0,0.0,77,0.00,,,0.00,0,Wunderground v.1.15,2013-05-12 04:50:00,
2013-05-12 00:56:00,55.1,48.0,29.65,South,169,0.0,0.0,77,0.00,,,0.00,0,Wunderground v.1.15,2013-05-12 04:56:00,
2013-05-12 01:02:00,55.1,48.4,29.65,South,169,0.0,0.0,78,0.00,,,0.00,0,Wunderground v.1.15,2013-05-12 05:02:00,
2013-05-12 01:07:00,55.1,48.0,29.65,South,169,0.0,0.0,77,0.00,,,0.00,0,Wunderground v.1.15,2013-05-12 05:07:00,
2013-05-12 01:13:00,55.0,47.9,29.65,South,169,0.0,0.0,77,0.00,,,0.00,0,Wunderground v.1.15,2013-05-12 05:13:00,
2013-05-12 01:18:00,55.0,47.9,29.65,South,169,0.0,1.0,77,0.00,,,0.00,0,Wunderground v.1.15,2013-05-12 05:18:00,
2013-05-12 01:23:00,55.0,47.9,29.65,South,169,0.0,0.0,77,0.00,,,0.00,0,Wunderground v.1.15,2013-05-12 05:23:00,
2013-05-12 01:29:00,55.1,48.4,29.65,South,169,0.0,0.0,78,0.00,,,0.00,0,Wunderground v.1.15,2013-05-12 05:29:00,
2013-05-12 01:34:00,55.0,48.6,29.65,South,169,0.0,0.0,79,0.00,,,0.00,0,Wunderground v.1.15,2013-05-12 05:34:00,
2013-05-12 01:40:00,55.0,48.6,29.65,South,169,0.0,0.0,79,0.00,,,0.00,0,Wunderground v.1.15,2013-05-12 05:40:00,
2013-05-12 01:45:00,55.0,48.6,29.65,South,169,0.0,0.0,79,0.00,,,0.00,0,Wunderground v.1.15,2013-05-12 05:45:00,
2013-05-12 01:51:00,54.8,48.1,29.65,South,169,0.0,0.0,78,0.00,,,0.00,0,Wunderground v.1.15,2013-05-12 05:51:00,
2013-05-12 01:56:00,54.8,48.1,29.65,South,169,0.0,0.0,78,0.00,,,0.00,0,Wunderground v.1.15,2013-05-12 05:56:00,
2013-05-12 02:01:00,54.7,48.3,29.65,South,169,0.0,0.0,79,0.00,,,0.00,0,Wunderground v.1.15,2013-05-12 06:01:00,
2013-05-12 02:07:00,54.7,48.3,29.65,South,169,0.0,0.0,79,0.00,,,0.00,0,Wunderground v.1.15,2013-05-12 06:07:00,
2013-05-12 02:13:00,54.7,48.3,29.65,South,169,0.0,0.0,79,0.00,,,0.00,0,Wunderground v.1.15,2013-05-12 06:13:00,
2013-05-12 02:18:00,54.5,48.1,29.65,South,169,0.0,0.0,79,0.00,,,0.00,0,Wunderground v.1.15,2013-05-12 06:18:00,
2013-05-12 02:24:00,54.4,48.0,29.65,South,169,0.0,0.0,79,0.00,,,0.00,0,Wunderground v.1.15,2013-05-12 06:24:00,
2013-05-12 02:29:00,54.4,48.0,29.65,South,169,0.0,0.0,79,0.00,,,0.00,0,Wunderground v.1.15,2013-05-12 06:29:00,
2013-05-12 02:34:00,54.2,48.2,29.63,South,169,0.0,0.0,80,0.00,,,0.00,0,Wunderground v.1.15,2013-05-12 06:34:00,
2013-05-12 02:39:00,54.2,48.2,29.63,South,169,0.0,0.0,80,0.00,,,0.00,0,Wunderground v.1.15,2013-05-12 06:39:00,
2013-05-12 02:45:00,54.2,48.2,29.63,South,169,0.0,0.0,80,0.00,,,0.00,0,Wunderground v.1.15,2013-05-12 06:45:00,
2013-05-12 02:51:00,54.1,48.1,29.63,South,169,0.0,0.0,80,0.00,,,0.00,0,Wunderground v.1.15,2013-05-12 06:51:00,
2013-05-12 02:56:00,54.1,48.1,29.63,South,169,0.0,0.0,80,0.00,,,0.00,0,Wunderground v.1.15,2013-05-12 06:56:00,
2013-05-12 03:02:00,54.1,48.1,29.63,South,169,0.0,0.0,80,0.00,,,0.00,0,Wunderground v.1.15,2013-05-12 07:02:00,
2013-05-12 03:07:00,53.9,47.9,29.63,South,169,0.0,0.0,80,0.00,,,0.00,0,Wunderground v.1.15,2013-05-12 07:07:00,
2013-05-12 03:12:00,53.9,47.9,29.63,South,169,0.0,0.0,80,0.00,,,0.00,0,Wunderground v.1.15,2013-05-12 07:12:00,
2013-05-12 03:18:00,53.8,48.1,29.63,South,169,0.0,0.0,81,0.00,,,0.00,0,Wunderground v.1.15,2013-05-12 07:18:00,
2013-05-12 03:23:00,53.8,48.1,29.63,South,169,0.0,0.0,81,0.00,,,0.00,0,Wunderground v.1.15,2013-05-12 07:23:00,
2013-05-12 03:29:00,53.6,48.2,29.63,South,169,0.0,0.0,82,0.00,,,0.00,0,Wunderground v.1.15,2013-05-12 07:29:00,
2013-05-12 03:34:00,53.6,48.2,29.63,South,169,0.0,0.0,82,0.00,,,0.00,0,Wunderground v.1.15,2013-05-12 07:34:00,
2013-05-12 03:39:00,53.5,48.5,29.63,South,169,0.0,0.0,83,0.00,,,0.00,0,Wunderground v.1.15,2013-05-12 07:39:00,
2013-05-12 03:45:00,53.5,48.5,29.63,South,169,0.0,0.0,83,0.00,,,0.00,0,Wunderground v.1.15,2013-05-12 07:45:00,
2013-05-12 03:50:00,53.3,48.3,29.63,South,169,0.0,0.0,83,0.00,,,0.00,0,Wunderground v.1.15,2013-05-12 07:50:00,
2013-05-12 03:56:00,53.3,48.3,29.63,South,169,0.0,0.0,83,0.00,,,0.00,0,Wunderground v.1.15,2013-05-12 07:56:00,
2013-05-12 04:02:00,53.2,48.2,29.62,South,169,0.0,0.0,83,0.00,,,0.00,0,Wunderground v.1.15,2013-05-12 08:02:00,
2013-05-12 04:07:00,53.2,48.5,29.62,South,169,0.0,0.0,84,0.00,,,0.00,0,Wunderground v.1.15,2013-05-12 08:07:00,
2013-05-12 04:12:00,53.1,48.4,29.62,South,169,0.0,0.0,84,0.00,,,0.00,0,Wunderground v.1.15,2013-05-12 08:12:00,
2013-05-12 04:17:00,52.9,48.2,29.62,South,169,0.0,0.0,84,0.00,,,0.00,0,Wunderground v.1.15,2013-05-12 08:17:00,
2013-05-12 04:23:00,52.9,48.2,29.62,South,169,0.0,0.0,84,0.00,,,0.00,0,Wunderground v.1.15,2013-05-12 08:23:00,
2013-05-12 04:28:00,52.8,48.1,29.62,South,169,0.0,0.0,84,0.00,,,0.00,0,Wunderground v.1.15,2013-05-12 08:28:00,
2013-05-12 04:34:00,52.6,47.9,29.62,South,169,0.0,0.0,84,0.00,,,0.00,0,Wunderground v.1.15,2013-05-12 08:34:00,
2013-05-12 04:39:00,52.6,47.9,29.62,South,169,0.0,0.0,84,0.00,,,0.00,0,Wunderground v.1.15,2013-05-12 08:39:00,
2013-05-12 04:45:00,52.5,47.8,29.61,South,169,0.0,0.0,84,0.00,,,0.00,0,Wunderground v.1.15,2013-05-12 08:45:00,
2013-05-12 04:50:00,52.5,47.5,29.61,South,169,0.0,0.0,83,0.00,,,0.00,0,Wunderground v.1.15,2013-05-12 08:50:00,
2013-05-12 04:55:00,52.3,47.3,29.61,South,169,0.0,0.0,83,0.00,,,0.00,0,Wunderground v.1.15,2013-05-12 08:55:00,
2013-05-12 05:01:00,52.2,47.2,29.61,South,169,0.0,0.0,83,0.00,,,0.00,0,Wunderground v.1.15,2013-05-12 09:01:00,
2013-05-12 05:07:00,51.7,46.7,29.61,South,169,0.0,0.0,83,0.00,,,0.00,0,Wunderground v.1.15,2013-05-12 09:07:00,
2013-05-12 05:12:00,51.6,46.9,29.61,South,169,0.0,0.0,84,0.00,,,0.00,0,Wunderground v.1.15,2013-05-12 09:12:00,
2013-05-12 05:17:00,51.4,46.7,29.63,South,169,0.0,0.0,84,0.00,,,0.00,0,Wunderground v.1.15,2013-05-12 09:17:00,
2013-05-12 05:23:00,51.3,46.9,29.63,South,169,0.0,0.0,85,0.00,,,0.00,0,Wunderground v.1.15,2013-05-12 09:23:00,
2013-05-12 05:28:00,51.3,47.3,29.63,South,169,0.0,0.0,86,0.00,,,0.00,0,Wunderground v.1.15,2013-05-12 09:28:00,
2013-05-12 05:34:00,51.3,47.3,29.63,South,169,0.0,0.0,86,0.00,,,0.00,0,Wunderground v.1.15,2013-05-12 09:34:00,
2013-05-12 05:39:00,51.3,47.3,29.63,South,169,0.0,0.0,86,0.00,,,0.00,5,Wunderground v.1.15,2013-05-12 09:39:00,
2013-05-12 05:45:00,51.3,47.3,29.61,South,169,0.0,0.0,86,0.00,,,0.00,7,Wunderground v.1.15,2013-05-12 09:45:00,
2013-05-12 05:50:00,51.3,47.3,29.61,South,169,0.0,0.0,86,0.00,,,0.00,9,Wunderground v.1.15,2013-05-12 09:50:00,
2013-05-12 05:55:00,51.3,47.3,29.61,South,169,0.0,0.0,86,0.00,,,0.00,14,Wunderground v.1.15,2013-05-12 09:55:00,
2013-05-12 06:01:00,51.3,47.3,29.62,South,169,0.0,0.0,86,0.00,,,0.00,18,Wunderground v.1.15,2013-05-12 10:01:00,
2013-05-12 06:07:00,51.3,47.3,29.62,South,169,0.0,0.0,86,0.00,,,0.00,19,Wunderground v.1.15,2013-05-12 10:07:00,
2013-05-12 06:13:00,51.3,47.3,29.62,South,169,0.0,0.0,86,0.00,,,0.00,26,Wunderground v.1.15,2013-05-12 10:13:00,
2013-05-12 06:18:00,51.3,47.3,29.62,South,169,0.0,0.0,86,0.00,,,0.00,21,Wunderground v.1.15,2013-05-12 10:18:00,
2013-05-12 06:23:00,51.3,47.3,29.62,South,169,0.0,0.0,86,0.00,,,0.00,21,Wunderground v.1.15,2013-05-12 10:23:00,
2013-05-12 06:29:00,51.3,46.9,29.62,South,169,0.0,0.0,85,0.00,,,0.00,35,Wunderground v.1.15,2013-05-12 10:29:00,
2013-05-12 06:34:00,51.4,47.0,29.61,South,169,0.0,0.0,85,0.00,,,0.00,46,Wunderground v.1.15,2013-05-12 10:34:00,
2013-05-12 06:39:00,51.4,47.0,29.61,South,169,0.0,0.0,85,0.00,,,0.00,46,Wunderground v.1.15,2013-05-12 10:39:00,
2013-05-12 06:45:00,51.6,47.2,29.61,South,169,0.0,0.0,85,0.00,,,0.00,60,Wunderground v.1.15,2013-05-12 10:45:00,
2013-05-12 06:50:00,51.6,47.2,29.61,South,169,0.0,0.0,85,0.00,,,0.00,77,Wunderground v.1.15,2013-05-12 10:50:00,
2013-05-12 06:56:00,51.7,47.3,29.61,South,169,0.0,0.0,85,0.00,,,0.00,51,Wunderground v.1.15,2013-05-12 10:56:00,
2013-05-12 07:01:00,51.9,47.2,29.61,South,169,0.0,0.0,84,0.00,,,0.00,54,Wunderground v.1.15,2013-05-12 11:01:00,
2013-05-12 07:07:00,51.9,47.2,29.61,South,169,0.0,0.0,84,0.00,,,0.00,74,Wunderground v.1.15,2013-05-12 11:07:00,
2013-05-12 07:13:00,52.0,47.0,29.61,South,169,0.0,0.0,83,0.00,,,0.00,72,Wunderground v.1.15,2013-05-12 11:13:00,
2013-05-12 07:18:00,52.2,47.2,29.62,South,169,0.0,0.0,83,0.00,,,0.00,67,Wunderground v.1.15,2013-05-12 11:18:00,
2013-05-12 07:24:00,52.2,46.9,29.62,South,169,0.0,0.0,82,0.00,,,0.00,63,Wunderground v.1.15,2013-05-12 11:24:00,
2013-05-12 07:29:00,52.2,46.9,29.62,South,169,0.0,0.0,82,0.00,,,0.00,49,Wunderground v.1.15,2013-05-12 11:29:00,
2013-05-12 07:35:00,52.3,46.6,29.62,South,169,0.0,1.0,81,0.00,,,0.00,58,Wunderground v.1.15,2013-05-12 11:35:00,
2013-05-12 07:40:00,52.3,46.6,29.62,South,169,0.0,0.0,81,0.00,,,0.00,65,Wunderground v.1.15,2013-05-12 11:40:00,
2013-05-12 07:45:00,52.5,46.2,29.63,SE,139,0.0,2.0,79,0.00,,,0.00,69,Wunderground v.1.15,2013-05-12 11:45:00,
2013-05-12 07:51:00,52.8,46.1,29.63,SSE,153,0.0,0.0,78,0.00,,,0.00,74,Wunderground v.1.15,2013-05-12 11:51:00,
2013-05-12 07:57:00,52.9,45.5,29.63,SSE,153,0.0,1.0,76,0.00,,,0.00,69,Wunderground v.1.15,2013-05-12 11:57:00,
2013-05-12 08:02:00,53.2,46.2,29.61,SSE,153,0.0,0.0,77,0.00,,,0.00,67,Wunderground v.1.15,2013-05-12 12:02:00,
2013-05-12 08:08:00,53.3,45.9,29.61,WSW,240,0.0,4.0,76,0.00,,,0.00,74,Wunderground v.1.15,2013-05-12 12:08:00,
2013-05-12 08:13:00,53.6,45.9,29.61,WSW,240,0.0,0.0,75,0.00,,,0.00,70,Wunderground v.1.15,2013-05-12 12:13:00,
2013-05-12 08:18:00,53.6,45.2,29.61,WSW,240,0.0,0.0,73,0.00,,,0.00,74,Wunderground v.1.15,2013-05-12 12:18:00,
2013-05-12 08:24:00,53.9,45.4,29.61,WSW,240,0.0,0.0,73,0.00,,,0.00,77,Wunderground v.1.15,2013-05-12 12:24:00,
2013-05-12 08:29:00,54.1,44.5,29.61,SSW,201,0.0,2.0,70,0.00,,,0.00,494,Wunderground v.1.15,2013-05-12 12:29:00,
2013-05-12 08:35:00,55.0,45.4,29.60,SSW,202,0.0,0.0,70,0.00,,,0.00,533,Wunderground v.1.15,2013-05-12 12:35:00,
2013-05-12 08:40:00,56.0,45.6,29.60,SSW,207,0.0,1.0,68,0.00,,,0.00,457,Wunderground v.1.15,2013-05-12 12:40:00,
2013-05-12 08:45:00,56.9,45.3,29.60,West,266,0.0,1.0,65,0.00,,,0.00,531,Wunderground v.1.15,2013-05-12 12:45:00,
2013-05-12 08:51:00,58.0,45.9,29.60,ESE,117,0.0,0.0,64,0.00,,,0.00,578,Wunderground v.1.15,2013-05-12 12:51:00,
2013-05-12 08:56:00,59.0,46.0,29.60,East,88,0.0,0.0,62,0.00,,,0.00,592,Wunderground v.1.15,2013-05-12 12:56:00,
2013-05-12 09:02:00,59.6,44.8,29.59,SSE,162,0.0,1.0,58,0.00,,,0.00,654,Wunderground v.1.15,2013-05-12 13:02:00,
2013-05-12 09:08:00,60.5,46.1,29.59,SSE,162,0.0,1.0,59,0.00,,,0.00,788,Wunderground v.1.15,2013-05-12 13:08:00,
2013-05-12 09:14:00,61.3,45.5,29.59,SSE,154,0.0,0.0,56,0.00,,,0.00,661,Wunderground v.1.15,2013-05-12 13:14:00,
2013-05-12 09:19:00,62.0,45.2,29.59,SSE,154,0.0,0.0,54,0.00,,,0.00,712,Wunderground v.1.15,2013-05-12 13:19:00,
2013-05-12 09:24:00,62.6,44.7,29.59,NNW,329,0.0,0.0,52,0.00,,,0.00,707,Wunderground v.1.15,2013-05-12 13:24:00,
2013-05-12 09:30:00,62.9,44.0,29.59,ESE,120,0.0,0.0,50,0.00,,,0.00,534,Wunderground v.1.15,2013-05-12 13:30:00,
2013-05-12 09:36:00,62.7,44.3,29.59,ESE,121,0.0,0.0,51,0.00,,,0.00,206,Wunderground v.1.15,2013-05-12 13:36:00,
2013-05-12 09:42:00,61.6,43.8,29.59,SE,124,0.0,0.0,52,0.00,,,0.00,135,Wunderground v.1.15,2013-05-12 13:42:00,
2013-05-12 09:47:00,61.2,45.8,29.59,SSW,195,0.0,1.0,57,0.00,,,0.00,418,Wunderground v.1.15,2013-05-12 13:47:00,
2013-05-12 09:52:00,60.7,43.9,29.59,West,278,0.0,0.0,54,0.00,,,0.00,322,Wunderground v.1.15,2013-05-12 13:52:00,
2013-05-12 09:57:00,60.4,43.7,29.59,West,279,0.0,0.0,54,0.00,,,0.00,309,Wunderground v.1.15,2013-05-12 13:57:00,
2013-05-12 10:03:00,60.9,45.6,29.59,West,279,0.0,0.0,57,0.00,,,0.00,246,Wunderground v.1.15,2013-05-12 14:03:00,
2013-05-12 10:09:00,60.9,44.6,29.59,SSW,204,0.0,1.0,55,0.00,,,0.00,163,Wunderground v.1.15,2013-05-12 14:09:00,
2013-05-12 10:14:00,60.7,45.8,29.59,SE,124,0.0,5.0,58,0.00,,,0.00,195,Wunderground v.1.15,2013-05-12 14:14:00,
2013-05-12 10:19:00,60.1,45.3,29.59,ESE,123,0.0,5.0,58,0.00,,,0.00,221,Wunderground v.1.15,2013-05-12 14:19:00,
2013-05-12 10:24:00,59.8,45.0,29.59,ESE,123,0.0,0.0,58,0.00,,,0.00,149,Wunderground v.1.15,2013-05-12 14:24:00,
2013-05-12 10:29:00,59.0,42.4,29.59,NW,310,1.0,5.0,54,0.00,,,0.00,336,Wunderground v.1.15,2013-05-12 14:29:00,
2013-05-12 10:35:00,58.6,42.5,29.58,NW,305,0.0,0.0,55,0.00,,,0.00,76,Wunderground v.1.15,2013-05-12 14:35:00,
2013-05-12 10:40:00,58.3,43.6,29.58,NW,319,0.0,3.0,58,0.00,,,0.00,69,Wunderground v.1.15,2013-05-12 14:40:00,
2013-05-12 10:46:00,57.6,43.8,29.59,NNW,328,0.0,3.0,60,0.00,,,0.00,113,Wunderground v.1.15,2013-05-12 14:46:00,
2013-05-12 10:51:00,57.3,43.1,29.59,NNW,328,0.0,0.0,59,0.00,,,0.00,192,Wunderground v.1.15,2013-05-12 14:51:00,
2013-05-12 10:57:00,57.3,44.0,29.59,NW,314,0.0,2.0,61,0.00,,,0.00,248,Wunderground v.1.15,2013-05-12 14:57:00,
2013-05-12 11:02:00,57.5,45.0,29.58,NW,307,0.0,0.0,63,0.00,,,0.00,529,Wunderground v.1.15,2013-05-12 15:02:00,
2013-05-12 11:08:00,58.0,45.5,29.58,SW,217,0.0,3.0,63,0.00,,,0.00,461,Wunderground v.1.15,2013-05-12 15:08:00,
2013-05-12 11:14:00,58.9,46.3,29.58,SW,226,0.0,0.0,63,0.00,,,0.00,311,Wunderground v.1.15,2013-05-12 15:14:00,
2013-05-12 11:20:00,59.8,46.7,29.58,SW,229,0.0,0.0,62,0.00,,,0.00,221,Wunderground v.1.15,2013-05-12 15:20:00,
2013-05-12 11:25:00,59.6,44.3,29.58,NNE,25,1.0,4.0,57,0.00,,,0.00,162,Wunderground v.1.15,2013-05-12 15:25:00,
2013-05-12 11:30:00,58.9,43.2,29.58,North,358,1.0,1.0,56,0.00,,,0.00,167,Wunderground v.1.15,2013-05-12 15:30:00,
2013-05-12 11:35:00,58.6,44.8,29.58,North,358,0.0,1.0,60,0.00,,,0.00,204,Wunderground v.1.15,2013-05-12 15:35:00,
2013-05-12 11:41:00,58.0,45.0,29.58,NW,313,0.0,0.0,62,0.00,,,0.00,339,Wunderground v.1.15,2013-05-12 15:41:00,
2013-05-12 11:47:00,57.3,43.5,29.58,ENE,72,1.0,3.0,60,0.00,,,0.00,271,Wunderground v.1.15,2013-05-12 15:47:00,
2013-05-12 11:52:00,56.6,42.9,29.58,WNW,282,1.0,1.0,60,0.00,,,0.00,174,Wunderground v.1.15,2013-05-12 15:52:00,
2013-05-12 11:58:00,56.3,43.4,29.58,North,4,0.0,2.0,62,0.00,,,0.00,190,Wunderground v.1.15,2013-05-12 15:58:00,
2013-05-12 12:03:00,55.9,42.6,29.59,ESE,110,1.0,2.0,61,0.00,,,0.00,221,Wunderground v.1.15,2013-05-12 16:03:00,
2013-05-12 12:09:00,55.9,42.2,29.59,North,10,0.0,2.0,60,0.00,,,0.00,304,Wunderground v.1.15,2013-05-12 16:09:00,
2013-05-12 12:14:00,55.9,42.2,29.59,South,173,0.0,1.0,60,0.00,,,0.00,302,Wunderground v.1.15,2013-05-12 16:14:00,
2013-05-12 12:20:00,55.9,41.3,29.59,NW,321,0.0,0.0,58,0.00,,,0.00,227,Wunderground v.1.15,2013-05-12 16:20:00,
2013-05-12 12:25:00,56.0,42.7,29.59,SW,229,1.0,3.0,61,0.00,,,0.00,207,Wunderground v.1.15,2013-05-12 16:25:00,
2013-05-12 12:31:00,55.9,42.2,29.59,North,0,0.0,0.0,60,0.00,,,0.00,114,Wunderground v.1.15,2013-05-12 16:31:00,
2013-05-12 12:36:00,55.7,42.0,29.59,NE,35,0.0,1.0,60,0.00,,,0.00,100,Wunderground v.1.15,2013-05-12 16:36:00,
2013-05-12 12:41:00,55.1,41.0,29.59,WSW,257,1.0,1.0,59,0.00,,,0.00,79,Wunderground v.1.15,2013-05-12 16:41:00,
2013-05-12 12:47:00,55.0,41.4,29.60,South,176,1.0,1.0,60,0.00,,,0.00,88,Wunderground v.1.15,2013-05-12 16:47:00,
2013-05-12 12:52:00,54.8,42.4,29.60,South,176,0.0,0.0,63,0.00,,,0.00,62,Wunderground v.1.15,2013-05-12 16:52:00,
2013-05-12 12:58:00,54.7,42.3,29.60,South,176,0.0,0.0,63,0.00,,,0.00,53,Wunderground v.1.15,2013-05-12 16:58:00,
2013-05-12 13:03:00,54.7,41.5,29.60,South,185,0.0,0.0,61,0.00,,,0.00,54,Wunderground v.1.15,2013-05-12 17:03:00,
2013-05-12 13:08:00,54.7,42.3,29.60,South,188,0.0,0.0,63,0.00,,,0.00,42,Wunderground v.1.15,2013-05-12 17:08:00,
2013-05-12 13:14:00,54.5,41.7,29.60,South,172,0.0,2.0,62,0.00,,,0.00,40,Wunderground v.1.15,2013-05-12 17:14:00,
2013-05-12 13:19:00,54.4,42.1,29.60,South,172,0.0,2.0,63,0.00,,,0.00,42,Wunderground v.1.15,2013-05-12 17:19:00,
2013-05-12 13:25:00,54.2,42.3,29.60,South,172,0.0,0.0,64,0.00,,,0.00,46,Wunderground v.1.15,2013-05-12 17:25:00,
2013-05-12 13:30:00,54.1,41.4,29.61,South,172,0.0,0.0,62,0.00,,,0.00,46,Wunderground v.1.15,2013-05-12 17:30:00,
2013-05-12 13:36:00,53.6,40.0,29.61,South,172,0.0,0.0,60,0.00,,,0.00,35,Wunderground v.1.15,2013-05-12 17:36:00,
2013-05-12 13:42:00,53.3,39.3,29.61,South,190,0.0,0.0,59,0.00,,,0.00,46,Wunderground v.1.15,2013-05-12 17:42:00,
2013-05-12 13:47:00,53.1,40.0,29.62,SSW,196,0.0,0.0,61,0.00,,,0.00,49,Wunderground v.1.15,2013-05-12 17:47:00,
2013-05-12 13:52:00,52.8,38.9,29.62,SSW,196,0.0,0.0,59,0.00,,,0.00,40,Wunderground v.1.15,2013-05-12 17:52:00,
2013-05-12 13:58:00,52.3,38.0,29.62,SSW,196,0.0,0.0,58,0.00,,,0.00,54,Wunderground v.1.15,2013-05-12 17:58:00,
2013-05-12 14:04:00,52.0,39.4,29.62,South,187,0.0,1.0,62,0.00,,,0.00,67,Wunderground v.1.15,2013-05-12 18:04:00,
2013-05-12 14:09:00,51.9,40.1,29.62,South,187,0.0,1.0,64,0.00,,,0.00,93,Wunderground v.1.15,2013-05-12 18:09:00,
2013-05-12 14:15:00,51.7,41.1,29.62,SSE,148,0.0,3.0,67,0.00,,,0.00,162,Wunderground v.1.15,2013-05-12 18:15:00,
2013-05-12 14:20:00,51.7,41.1,29.62,SSE,148,0.0,0.0,67,0.00,,,0.00,127,Wunderground v.1.15,2013-05-12 18:20:00,
2013-05-12 14:25:00,51.9,41.3,29.62,SSE,148,0.0,0.0,67,0.00,,,0.00,229,Wunderground v.1.15,2013-05-12 18:25:00,
2013-05-12 14:31:00,52.0,40.6,29.62,SSE,150,0.0,0.0,65,0.00,,,0.00,246,Wunderground v.1.15,2013-05-12 18:31:00,
2013-05-12 14:36:00,52.3,40.9,29.62,SSE,150,0.0,0.0,65,0.00,,,0.00,320,Wunderground v.1.15,2013-05-12 18:36:00,
2013-05-12 14:42:00,52.8,40.1,29.62,SSE,150,0.0,0.0,62,0.00,,,0.00,359,Wunderground v.1.15,2013-05-12 18:42:00,
2013-05-12 14:47:00,53.3,40.2,29.62,SSE,150,0.0,0.0,61,0.00,,,0.00,318,Wunderground v.1.15,2013-05-12 18:47:00,
2013-05-12 14:53:00,54.1,39.6,29.62,SW,228,0.0,1.0,58,0.00,,,0.00,378,Wunderground v.1.15,2013-05-12 18:53:00,
2013-05-12 14:58:00,54.7,39.8,29.62,South,181,0.0,1.0,57,0.00,,,0.00,606,Wunderground v.1.15,2013-05-12 18:58:00,
2013-05-12 15:03:00,55.0,38.6,29.62,SSW,207,0.0,1.0,54,0.00,,,0.00,357,Wunderground v.1.15,2013-05-12 19:03:00,
2013-05-12 15:09:00,55.7,39.3,29.62,SSW,203,0.0,1.0,54,0.00,,,0.00,1014,Wunderground v.1.15,2013-05-12 19:09:00,
2013-05-12 15:15:00,57.2,39.7,29.61,South,177,0.0,4.0,52,0.00,,,0.00,930,Wunderground v.1.15,2013-05-12 19:15:00,
2013-05-12 15:20:00,58.3,38.7,29.61,SSE,147,0.0,0.0,48,0.00,,,0.00,214,Wunderground v.1.15,2013-05-12 19:20:00,
2013-05-12 15:25:00,58.6,40.5,29.61,SSE,147,0.0,0.0,51,0.00,,,0.00,803,Wunderground v.1.15,2013-05-12 19:25:00,
2013-05-12 15:30:00,58.3,39.2,29.61,SSE,148,0.0,0.0,49,0.00,,,0.00,780,Wunderground v.1.15,2013-05-12 19:30:00,
2013-05-12 15:36:00,58.7,38.5,29.61,SSE,148,0.0,0.0,47,0.00,,,0.00,756,Wunderground v.1.15,2013-05-12 19:36:00,
2013-05-12 15:41:00,59.5,38.7,29.61,SSE,148,0.0,0.0,46,0.00,,,0.00,703,Wunderground v.1.15,2013-05-12 19:41:00,
2013-05-12 15:47:00,60.5,37.3,29.61,SSE,148,0.0,0.0,42,0.00,,,0.00,765,Wunderground v.1.15,2013-05-12 19:47:00,
2013-05-12 15:52:00,59.2,32.9,29.61,SSE,148,0.0,0.0,37,0.00,,,0.00,246,Wunderground v.1.15,2013-05-12 19:52:00,
2013-05-12 15:58:00,58.7,34.4,29.61,SSE,148,0.0,0.0,40,0.00,,,0.00,200,Wunderground v.1.15,2013-05-12 19:58:00,
2013-05-12 16:03:00,59.6,35.9,29.60,SSE,148,0.0,1.0,41,0.00,,,0.00,789,Wunderground v.1.15,2013-05-12 20:03:00,
2013-05-12 16:09:00,61.2,36.7,29.60,SSE,148,0.0,1.0,40,0.00,,,0.00,775,Wunderground v.1.15,2013-05-12 20:09:00,
2013-05-12 16:15:00,61.2,30.3,29.60,SE,137,1.0,2.0,31,0.00,,,0.00,677,Wunderground v.1.15,2013-05-12 20:15:00,
2013-05-12 16:20:00,61.6,30.6,29.60,WNW,291,1.0,5.0,31,0.00,,,0.00,650,Wunderground v.1.15,2013-05-12 20:20:00,
2013-05-12 16:26:00,61.2,30.3,29.60,North,10,0.0,5.0,31,0.00,,,0.00,647,Wunderground v.1.15,2013-05-12 20:26:00,
2013-05-12 16:31:00,60.5,28.9,29.61,ESE,109,1.0,1.0,30,0.00,,,0.00,645,Wunderground v.1.15,2013-05-12 20:31:00,
2013-05-12 16:36:00,60.1,30.9,29.61,North,352,2.0,2.0,33,0.00,,,0.00,680,Wunderground v.1.15,2013-05-12 20:36:00,
2013-05-12 16:42:00,59.2,26.1,29.61,NNE,26,1.0,2.0,28,0.00,,,0.00,285,Wunderground v.1.15,2013-05-12 20:42:00,
2013-05-12 16:47:00,58.7,25.6,29.61,North,4,1.0,3.0,28,0.00,,,0.00,431,Wunderground v.1.15,2013-05-12 20:47:00,
2013-05-12 16:53:00,58.3,27.0,29.61,ESE,106,1.0,4.0,30,0.00,,,0.00,202,Wunderground v.1.15,2013-05-12 20:53:00,
2013-05-12 16:58:00,57.5,23.7,29.61,North,6,1.0,4.0,27,0.00,,,0.00,209,Wunderground v.1.15,2013-05-12 20:58:00,
2013-05-12 17:03:00,57.3,26.1,29.61,SSW,194,1.0,3.0,30,0.00,,,0.00,367,Wunderground v.1.15,2013-05-12 21:03:00,
2013-05-12 17:09:00,57.5,27.1,29.61,SW,226,1.0,3.0,31,0.00,,,0.00,185,Wunderground v.1.15,2013-05-12 21:09:00,
2013-05-12 17:14:00,57.2,28.3,29.61,NE,51,1.0,2.0,33,0.00,,,0.00,211,Wunderground v.1.15,2013-05-12 21:14:00,
2013-05-12 17:20:00,57.0,27.4,29.62,North,3,1.0,1.0,32,0.00,,,0.00,153,Wunderground v.1.15,2013-05-12 21:20:00,
2013-05-12 17:26:00,56.6,25.5,29.62,NE,37,1.0,2.0,30,0.00,,,0.00,207,Wunderground v.1.15,2013-05-12 21:26:00,
2013-05-12 17:31:00,56.7,25.6,29.62,West,269,1.0,2.0,30,0.00,,,0.00,236,Wunderground v.1.15,2013-05-12 21:31:00,
2013-05-12 17:36:00,57.0,25.0,29.62,North,358,1.0,5.0,29,0.00,,,0.00,183,Wunderground v.1.15,2013-05-12 21:36:00,
2013-05-12 17:42:00,57.2,23.5,29.62,North,354,1.0,1.0,27,0.00,,,0.00,144,Wunderground v.1.15,2013-05-12 21:42:00,
2013-05-12 17:47:00,56.9,24.1,29.62,WSW,240,1.0,3.0,28,0.00,,,0.00,58,Wunderground v.1.15,2013-05-12 21:47:00,
2013-05-12 17:53:00,56.3,25.2,29.62,North,0,0.0,1.0,30,0.00,,,0.00,120,Wunderground v.1.15,2013-05-12 21:53:00,
2013-05-12 17:58:00,56.0,24.2,29.62,WSW,242,1.0,2.0,29,0.00,,,0.00,144,Wunderground v.1.15,2013-05-12 21:58:00,
2013-05-12 18:04:00,56.0,24.2,29.63,North,0,1.0,10.0,29,0.00,,,0.00,107,Wunderground v.1.15,2013-05-12 22:04:00,
2013-05-12 18:09:00,55.9,26.4,29.63,North,4,1.0,10.0,32,0.00,,,0.00,77,Wunderground v.1.15,2013-05-12 22:09:00,
2013-05-12 18:14:00,55.6,26.2,29.63,WNW,292,2.0,4.0,32,0.00,,,0.00,53,Wunderground v.1.15,2013-05-12 22:14:00,
2013-05-12 18:20:00,55.1,22.5,29.64,SSE,156,1.0,1.0,28,0.00,,,0.00,46,Wunderground v.1.15,2013-05-12 22:20:00,
2013-05-12 18:25:00,54.7,23.8,29.64,NNE,18,1.0,2.0,30,0.00,,,0.00,28,Wunderground v.1.15,2013-05-12 22:25:00,
2013-05-12 18:31:00,54.1,26.3,29.65,NE,53,1.0,3.0,34,0.00,,,0.00,53,Wunderground v.1.15,2013-05-12 22:31:00,
2013-05-12 18:37:00,53.5,25.8,29.65,SE,146,1.0,3.0,34,0.00,,,0.00,91,Wunderground v.1.15,2013-05-12 22:37:00,
2013-05-12 18:42:00,53.5,25.1,29.65,WNW,289,1.0,4.0,33,0.00,,,0.00,83,Wunderground v.1.15,2013-05-12 22:42:00,
2013-05-12 18:47:00,53.3,27.7,29.67,NW,314,1.0,4.0,37,0.00,,,0.00,39,Wunderground v.1.15,2013-05-12 22:47:00,
2013-05-12 18:53:00,52.8,27.2,29.67,NNW,331,2.0,3.0,37,0.00,,,0.00,42,Wunderground v.1.15,2013-05-12 22:53:00,
2013-05-12 18:58:00,52.2,27.3,29.67,NW,326,1.0,3.0,38,0.00,,,0.00,67,Wunderground v.1.15,2013-05-12 22:58:00,
2013-05-12 19:04:00,52.0,28.4,29.67,SE,131,1.0,1.0,40,0.00,,,0.00,77,Wunderground v.1.15,2013-05-12 23:04:00,
2013-05-12 19:10:00,51.9,28.9,29.67,East,101,0.0,0.0,41,0.00,,,0.00,40,Wunderground v.1.15,2013-05-12 23:10:00,
2013-05-12 19:16:00,51.4,28.5,29.68,North,353,1.0,2.0,41,0.00,,,0.00,19,Wunderground v.1.15,2013-05-12 23:16:00,
2013-05-12 19:21:00,51.1,28.2,29.68,North,0,0.0,0.0,41,0.00,,,0.00,14,Wunderground v.1.15,2013-05-12 23:21:00,
2013-05-12 19:26:00,50.7,30.1,29.68,WNW,299,0.0,3.0,45,0.00,,,0.00,14,Wunderground v.1.15,2013-05-12 23:26:00,
2013-05-12 19:32:00,50.1,29.0,29.69,South,174,0.0,3.0,44,0.00,,,0.00,14,Wunderground v.1.15,2013-05-12 23:32:00,
2013-05-12 19:37:00,49.8,29.3,29.69,South,174,0.0,3.0,45,0.00,,,0.00,11,Wunderground v.1.15,2013-05-12 23:37:00,
2013-05-12 19:43:00,49.5,30.1,29.69,South,174,0.0,0.0,47,0.00,,,0.00,11,Wunderground v.1.15,2013-05-12 23:43:00,
2013-05-12 19:48:00,49.2,30.3,29.69,South,174,0.0,0.0,48,0.00,,,0.00,9,Wunderground v.1.15,2013-05-12 23:48:00,
2013-05-12 19:53:00,48.8,31.0,29.69,South,174,0.0,0.0,50,0.00,,,0.00,7,Wunderground v.1.15,2013-05-12 23:53:00,
2013-05-12 19:59:00,48.5,30.7,29.69,South,174,0.0,0.0,50,0.00,,,0.00,5,Wunderground v.1.15,2013-05-12 23:59:00,
2013-05-12 20:04:00,48.2,31.4,29.69,South,174,0.0,0.0,52,0.00,,,0.00,0,Wunderground v.1.15,2013-05-13 00:04:00,
2013-05-12 20:10:00,47.7,30.9,29.69,South,174,0.0,0.0,52,0.00,,,0.00,0,Wunderground v.1.15,2013-05-13 00:10:00,
2013-05-12 20:16:00,47.4,31.1,29.69,South,174,0.0,0.0,53,0.00,,,0.00,0,Wunderground v.1.15,2013-05-13 00:16:00,
2013-05-12 20:21:00,47.1,31.3,29.69,South,174,0.0,0.0,54,0.00,,,0.00,0,Wunderground v.1.15,2013-05-13 00:21:00,
2013-05-12 20:27:00,46.8,31.0,29.69,South,174,0.0,0.0,54,0.00,,,0.00,0,Wunderground v.1.15,2013-05-13 00:27:00,
2013-05-12 20:32:00,46.5,31.6,29.70,South,174,0.0,0.0,56,0.00,,,0.00,0,Wunderground v.1.15,2013-05-13 00:32:00,
2013-05-12 20:37:00,46.2,31.8,29.70,South,174,0.0,0.0,57,0.00,,,0.00,0,Wunderground v.1.15,2013-05-13 00:37:00,
2013-05-12 20:43:00,46.0,31.6,29.70,South,174,0.0,0.0,57,0.00,,,0.00,0,Wunderground v.1.15,2013-05-13 00:43:00,
2013-05-12 20:49:00,45.7,31.8,29.71,South,174,0.0,0.0,58,0.00,,,0.00,0,Wunderground v.1.15,2013-05-13 00:49:00,
2013-05-12 20:54:00,45.5,32.0,29.71,South,174,0.0,0.0,59,0.00,,,0.00,0,Wunderground v.1.15,2013-05-13 00:54:00,
2013-05-12 20:59:00,45.5,32.4,29.71,South,174,0.0,0.0,60,0.00,,,0.00,0,Wunderground v.1.15,2013-05-13 00:59:00,
2013-05-12 21:06:00,45.5,32.4,29.72,South,174,0.0,1.0,60,0.00,,,0.00,0,Wunderground v.1.15,2013-05-13 01:06:00,
2013-05-12 21:11:00,45.7,33.0,29.72,South,175,0.0,1.0,61,0.00,,,0.00,0,Wunderground v.1.15,2013-05-13 01:11:00,
2013-05-12 21:17:00,45.7,32.6,29.73,East,96,0.0,2.0,60,0.00,,,0.00,0,Wunderground v.1.15,2013-05-13 01:17:00,
2013-05-12 21:22:00,45.7,31.3,29.73,ENE,77,1.0,2.0,57,0.00,,,0.00,0,Wunderground v.1.15,2013-05-13 01:22:00,
2013-05-12 21:27:00,45.7,30.4,29.73,South,179,1.0,2.0,55,0.00,,,0.00,0,Wunderground v.1.15,2013-05-13 01:27:00,
2013-05-12 21:33:00,45.5,30.3,29.75,ESE,104,0.0,2.0,55,0.00,,,0.00,0,Wunderground v.1.15,2013-05-13 01:33:00,
2013-05-12 21:38:00,45.4,30.2,29.75,North,6,0.0,2.0,55,0.00,,,0.00,0,Wunderground v.1.15,2013-05-13 01:38:00,
2013-05-12 21:43:00,45.2,30.0,29.75,ESE,103,0.0,0.0,55,0.00,,,0.00,0,Wunderground v.1.15,2013-05-13 01:43:00,
2013-05-12 21:49:00,44.9,29.7,29.75,NW,304,0.0,2.0,55,0.00,,,0.00,0,Wunderground v.1.15,2013-05-13 01:49:00,
2013-05-12 21:55:00,44.8,30.5,29.75,NW,304,0.0,0.0,57,0.00,,,0.00,0,Wunderground v.1.15,2013-05-13 01:55:00,
2013-05-12 22:00:00,44.6,30.7,29.74,NW,304,0.0,0.0,58,0.00,,,0.00,0,Wunderground v.1.15,2013-05-13 02:00:00,
2013-05-12 22:06:00,44.3,30.4,29.74,SE,138,0.0,0.0,58,0.00,,,0.00,0,Wunderground v.1.15,2013-05-13 02:06:00,
2013-05-12 22:11:00,44.2,30.8,29.74,SSE,155,0.0,0.0,59,0.00,,,0.00,0,Wunderground v.1.15,2013-05-13 02:11:00,
2013-05-12 22:16:00,44.1,30.3,29.75,SSE,155,0.0,0.0,58,0.00,,,0.00,0,Wunderground v.1.15,2013-05-13 02:16:00,
2013-05-12 22:22:00,43.9,30.9,29.75,SSE,153,0.0,0.0,60,0.00,,,0.00,0,Wunderground v.1.15,2013-05-13 02:22:00,
2013-05-12 22:28:00,43.8,30.8,29.75,SSE,153,0.0,0.0,60,0.00,,,0.00,0,Wunderground v.1.15,2013-05-13 02:28:00,
2013-05-12 22:33:00,43.6,30.6,29.75,SSE,149,0.0,7.0,60,0.00,,,0.00,0,Wunderground v.1.15,2013-05-13 02:33:00,
2013-05-12 22:39:00,43.5,30.9,29.75,SSE,151,0.0,7.0,61,0.00,,,0.00,0,Wunderground v.1.15,2013-05-13 02:39:00,
2013-05-12 22:44:00,43.5,30.9,29.75,SSE,151,0.0,0.0,61,0.00,,,0.00,0,Wunderground v.1.15,2013-05-13 02:44:00,
2013-05-12 22:49:00,43.3,30.3,29.74,SSE,151,0.0,0.0,60,0.00,,,0.00,0,Wunderground v.1.15,2013-05-13 02:49:00,
2013-05-12 22:55:00,43.2,30.6,29.74,SSE,151,0.0,0.0,61,0.00,,,0.00,0,Wunderground v.1.15,2013-05-13 02:55:00,
2013-05-12 23:00:00,43.1,31.4,29.75,SSE,151,0.0,0.0,63,0.00,,,0.00,0,Wunderground v.1.15,2013-05-13 03:00:00,
2013-05-12 23:05:00,42.9,31.2,29.75,SSE,151,0.0,0.0,63,0.00,,,0.00,0,Wunderground v.1.15,2013-05-13 03:05:00,
2013-05-12 23:11:00,42.8,31.5,29.75,SSE,151,0.0,2.0,64,0.00,,,0.00,0,Wunderground v.1.15,2013-05-13 03:11:00,
2013-05-12 23:16:00,42.5,30.8,29.75,SSE,151,0.0,2.0,63,0.00,,,0.00,0,Wunderground v.1.15,2013-05-13 03:16:00,
2013-05-12 23:21:00,42.3,31.0,29.75,SSE,151,0.0,0.0,64,0.00,,,0.00,0,Wunderground v.1.15,2013-05-13 03:21:00,
2013-05-12 23:27:00,42.1,30.4,29.75,SSE,150,0.0,1.0,63,0.00,,,0.00,0,Wunderground v.1.15,2013-05-13 03:27:00,
2013-05-12 23:32:00,41.9,30.2,29.74,SSE,150,0.0,0.0,63,0.00,,,0.00,0,Wunderground v.1.15,2013-05-13 03:32:00,
2013-05-12 23:38:00,41.9,30.6,29.74,SSE,150,0.0,0.0,64,0.00,,,0.00,0,Wunderground v.1.15,2013-05-13 03:38:00,
2013-05-12 23:43:00,41.9,31.0,29.74,SSE,150,0.0,0.0,65,0.00,,,0.00,0,Wunderground v.1.15,2013-05-13 03:43:00,
2013-05-12 23:48:00,42.2,31.6,29.74,SSE,150,0.0,0.0,66,0.00,,,0.00,0,Wunderground v.1.15,2013-05-13 03:48:00,
2013-05-12 23:54:00,42.3,31.7,29.74,SSE,150,0.0,0.0,66,0.00,,,0.00,0,Wunderground v.1.15,2013-05-13 03:54:00,
2013-05-12 23:59:00,42.5,32.3,29.74,SSE,150,0.0,1.0,67,0.00,,,0.00,0,Wunderground v.1.15,2013-05-13 03:59:00,